North Chittenango, New York
Current Conditions -  °F | °C
As of 5:54 AM on Wednesday 22 Oct 2014 (Local Time) from KSYR Reporting Station
Haze Haze  
Wind Chill: 39°   Ceiling: 1600
Heat Index: 46°   Visibility: 6mi
Dew Point: 44°   Wind: 16mph
Humidity: 95%   Direction: 10°N
Pressure: 30.08"   Gusts: NA
Location:  43.0618°N, 75.8688°W
Report Text: KSYR 220954Z 01014KT 6SM BR FEW007 BKN016 OVC025 08/07 A3008 RMK SLP186 T00760068
Loading
Personal Weather Stations






























Interactive Weather Map
Tropical Storm Tracking
New forecast layout! Learn more

10-Day Weather Forecast

Advertisements
Track Severe Weather on mobile